createdAt,value
2022-12-25T00:09:53.200Z,6.05
2022-12-25T00:19:57.691Z,5.40
2022-12-25T00:30:00.715Z,5.35
2022-12-25T00:40:06.128Z,3.83
2022-12-25T00:50:09.971Z,3.22
2022-12-25T01:00:16.984Z,3.35
2022-12-25T01:10:22.952Z,3.65
2022-12-25T01:20:27.340Z,3.08
2022-12-25T01:30:30.481Z,4.55
2022-12-25T01:40:35.909Z,3.97
2022-12-25T01:50:41.217Z,4.25
2022-12-25T02:00:46.495Z,4.20
2022-12-25T02:10:49.592Z,5.00
2022-12-25T02:21:30.594Z,4.15
2022-12-25T02:31:41.110Z,5.20
2022-12-25T02:41:48.050Z,5.47
2022-12-25T02:52:15.506Z,4.57
2022-12-25T03:02:38.163Z,4.60
2022-12-25T03:12:50.512Z,4.40
2022-12-25T03:23:13.757Z,3.97
2022-12-25T03:33:44.581Z,4.40
2022-12-25T03:44:27.938Z,3.70
2022-12-25T03:54:57.048Z,5.37
2022-12-25T04:05:18.465Z,4.72
2022-12-25T04:15:41.422Z,5.68
2022-12-25T04:26:03.239Z,5.47
2022-12-25T04:36:09.539Z,8.60
2022-12-25T04:46:14.553Z,5.53
2022-12-25T04:56:19.873Z,2.85
2022-12-25T05:06:22.804Z,3.22
2022-12-25T05:16:27.510Z,3.58
2022-12-25T05:26:30.793Z,3.35
2022-12-25T05:36:35.612Z,2.83
2022-12-25T05:46:38.655Z,2.58
2022-12-25T05:56:46.520Z,3.92
2022-12-25T06:06:49.450Z,3.20
2022-12-25T06:16:55.030Z,3.05
2022-12-25T06:27:06.934Z,3.00
2022-12-25T06:37:11.580Z,3.28
2022-12-25T06:47:14.569Z,3.60
2022-12-25T06:57:20.021Z,2.20
2022-12-25T07:07:24.365Z,2.53
2022-12-25T07:17:29.895Z,2.05
2022-12-25T07:27:33.819Z,2.63
2022-12-25T07:37:39.928Z,3.25
2022-12-25T07:47:44.232Z,4.03
2022-12-25T07:57:49.488Z,4.30
2022-12-25T08:07:57.370Z,3.97
2022-12-25T08:18:03.651Z,2.75
2022-12-25T08:28:06.999Z,2.80
2022-12-25T08:38:11.923Z,4.97
2022-12-25T08:48:15.377Z,2.25
2022-12-25T08:58:20.471Z,3.20
2022-12-25T09:08:24.405Z,3.40
2022-12-25T09:18:29.816Z,2.80
2022-12-25T09:28:35.083Z,1.20
2022-12-25T09:38:40.170Z,2.05
2022-12-25T09:48:49.130Z,1.80
2022-12-25T09:58:55.222Z,1.73
2022-12-25T10:09:18.282Z,1.70
2022-12-25T10:19:41.252Z,2.67
2022-12-25T10:29:47.209Z,1.67
2022-12-25T10:39:53.164Z,1.70
2022-12-25T10:49:57.472Z,1.58
2022-12-25T11:00:08.745Z,1.45
2022-12-25T11:10:22.349Z,2.03
2022-12-25T11:20:28.340Z,1.45
2022-12-25T11:30:34.956Z,0.95
2022-12-25T11:40:47.955Z,1.77
2022-12-25T11:50:55.962Z,1.73
2022-12-25T12:01:05.937Z,1.55
2022-12-25T12:11:19.764Z,2.10
2022-12-25T12:21:26.997Z,2.22
2022-12-25T12:31:40.915Z,1.50
2022-12-25T12:41:48.540Z,1.55
2022-12-25T12:52:03.240Z,1.20
2022-12-25T13:02:35.642Z,0.82
2022-12-25T13:12:39.751Z,1.35
2022-12-25T13:22:52.399Z,1.27
2022-12-25T13:32:57.718Z,1.85
2022-12-25T13:43:03.330Z,1.35
2022-12-25T13:53:13.482Z,1.02
2022-12-25T14:03:20.517Z,2.20
2022-12-25T14:13:29.970Z,1.15
2022-12-25T14:23:42.245Z,1.05
2022-12-25T14:43:55.276Z,1.20
2022-12-25T14:54:02.022Z,2.25
2022-12-25T15:04:15.819Z,0.98
2022-12-25T15:14:20.938Z,1.85
2022-12-25T15:24:26.652Z,3.05
2022-12-25T15:34:31.071Z,2.55
2022-12-25T15:44:36.996Z,1.48
2022-12-25T15:54:40.965Z,1.65
2022-12-25T16:04:53.858Z,1.48
2022-12-25T16:15:00.501Z,1.05
2022-12-25T16:25:14.521Z,6.00
2022-12-25T16:35:18.970Z,1.30
2022-12-25T16:45:24.592Z,1.17
2022-12-25T16:55:30.352Z,1.70
2022-12-25T17:05:37.559Z,1.63
2022-12-25T17:15:46.655Z,1.48
2022-12-25T17:26:01.304Z,2.65
2022-12-25T17:36:08.781Z,1.60
2022-12-25T17:46:16.763Z,0.98
2022-12-25T17:56:24.209Z,1.30
2022-12-25T18:17:34.956Z,1.08
2022-12-25T18:27:50.145Z,0.73
2022-12-25T18:37:55.787Z,0.88
2022-12-25T18:48:03.634Z,1.40
2022-12-25T18:58:11.289Z,1.33
2022-12-25T19:08:17.579Z,1.58
2022-12-25T19:18:24.836Z,1.10
2022-12-25T19:28:30.513Z,0.88
2022-12-25T19:38:34.370Z,0.70
2022-12-25T19:48:38.988Z,1.02
2022-12-25T19:58:42.057Z,2.47
2022-12-25T20:08:49.026Z,1.15
2022-12-25T20:18:53.827Z,0.70
2022-12-25T20:29:01.753Z,1.52
2022-12-25T20:39:07.160Z,1.25
2022-12-25T20:49:13.149Z,0.75
2022-12-25T20:59:16.175Z,1.00
2022-12-25T21:09:21.215Z,0.93
2022-12-25T21:19:41.264Z,2.45
2022-12-25T21:29:45.703Z,1.30
2022-12-25T21:39:50.599Z,1.55
2022-12-25T21:50:13.647Z,1.50
2022-12-25T22:00:17.910Z,1.38
2022-12-25T22:10:22.487Z,2.60
2022-12-25T22:20:26.982Z,2.53
2022-12-25T22:30:32.170Z,2.33
2022-12-25T22:40:38.064Z,1.52
2022-12-25T22:50:42.637Z,1.38
2022-12-25T23:00:46.545Z,0.93
2022-12-25T23:10:52.267Z,1.67
2022-12-25T23:21:18.837Z,1.10
2022-12-25T23:31:25.879Z,2.05
2022-12-25T23:41:29.026Z,1.45
2022-12-25T23:51:35.279Z,1.65
